sensor_id;sensor_type;location;lat;lon;timestamp;temperature;humidity
22633;DHT22;11483;55.828;37.488;2023-04-03T00:00:30;10.30;99.90
22633;DHT22;11483;55.828;37.488;2023-04-03T00:02:57;10.30;99.90
22633;DHT22;11483;55.828;37.488;2023-04-03T00:05:23;10.40;99.90
22633;DHT22;11483;55.828;37.488;2023-04-03T00:07:48;10.40;99.90
22633;DHT22;11483;55.828;37.488;2023-04-03T00:10:16;10.50;99.90
22633;DHT22;11483;55.828;37.488;2023-04-03T00:12:41;10.40;99.90
22633;DHT22;11483;55.828;37.488;2023-04-03T00:15:08;10.50;99.90
22633;DHT22;11483;55.828;37.488;2023-04-03T00:17:35;10.50;99.90
22633;DHT22;11483;55.828;37.488;2023-04-03T00:20:01;10.50;99.90
22633;DHT22;11483;55.828;37.488;2023-04-03T00:22:27;10.40;99.90
22633;DHT22;11483;55.828;37.488;2023-04-03T00:24:54;10.40;99.90
22633;DHT22;11483;55.828;37.488;2023-04-03T00:27:20;10.30;99.90
22633;DHT22;11483;55.828;37.488;2023-04-03T00:29:46;10.30;99.90
22633;DHT22;11483;55.828;37.488;2023-04-03T00:32:12;10.30;99.90
22633;DHT22;11483;55.828;37.488;2023-04-03T00:34:38;10.30;99.90
22633;DHT22;11483;55.828;37.488;2023-04-03T00:37:04;10.30;99.90
22633;DHT22;11483;55.828;37.488;2023-04-03T00:39:30;10.20;99.90
22633;DHT22;11483;55.828;37.488;2023-04-03T00:41:56;10.20;99.90
22633;DHT22;11483;55.828;37.488;2023-04-03T00:47:12;10.10;99.90
22633;DHT22;11483;55.828;37.488;2023-04-03T00:49:39;10.10;99.90
22633;DHT22;11483;55.828;37.488;2023-04-03T00:52:08;10.00;99.90
22633;DHT22;11483;55.828;37.488;2023-04-03T00:54:36;10.00;99.90
22633;DHT22;11483;55.828;37.488;2023-04-03T00:57:03;10.00;99.90
22633;DHT22;11483;55.828;37.488;2023-04-03T00:59:34;10.10;99.90
22633;DHT22;11483;55.828;37.488;2023-04-03T01:02:01;10.10;99.90
22633;DHT22;11483;55.828;37.488;2023-04-03T01:04:37;10.10;99.90
22633;DHT22;11483;55.828;37.488;2023-04-03T01:07:13;10.10;99.90
22633;DHT22;11483;55.828;37.488;2023-04-03T01:09:40;10.20;99.90
22633;DHT22;11483;55.828;37.488;2023-04-03T01:12:21;10.20;99.90
22633;DHT22;11483;55.828;37.488;2023-04-03T01:15:18;10.20;99.90
22633;DHT22;11483;55.828;37.488;2023-04-03T01:17:50;10.20;99.90
22633;DHT22;11483;55.828;37.488;2023-04-03T01:25:51;10.20;99.90
22633;DHT22;11483;55.828;37.488;2023-04-03T01:28:20;10.20;99.90
22633;DHT22;11483;55.828;37.488;2023-04-03T01:33:31;10.20;99.90
22633;DHT22;11483;55.828;37.488;2023-04-03T01:35:56;10.20;99.90
22633;DHT22;11483;55.828;37.488;2023-04-03T01:38:22;10.20;99.90
22633;DHT22;11483;55.828;37.488;2023-04-03T01:40:48;10.20;99.90
22633;DHT22;11483;55.828;37.488;2023-04-03T01:43:14;10.30;99.90
22633;DHT22;11483;55.828;37.488;2023-04-03T01:45:40;10.30;99.90
22633;DHT22;11483;55.828;37.488;2023-04-03T01:48:06;10.40;99.90
22633;DHT22;11483;55.828;37.488;2023-04-03T01:50:32;10.40;99.90
22633;DHT22;11483;55.828;37.488;2023-04-03T01:52:58;10.50;99.90
22633;DHT22;11483;55.828;37.488;2023-04-03T01:55:24;10.40;99.90
22633;DHT22;11483;55.828;37.488;2023-04-03T01:57:50;10.40;99.90
22633;DHT22;11483;55.828;37.488;2023-04-03T02:00:16;10.40;99.90
22633;DHT22;11483;55.828;37.488;2023-04-03T02:02:42;10.40;99.90
22633;DHT22;11483;55.828;37.488;2023-04-03T02:05:08;10.30;99.90
22633;DHT22;11483;55.828;37.488;2023-04-03T02:07:34;10.30;99.90
22633;DHT22;11483;55.828;37.488;2023-04-03T02:09:59;10.30;99.90
22633;DHT22;11483;55.828;37.488;2023-04-03T02:12:25;10.30;99.90
22633;DHT22;11483;55.828;37.488;2023-04-03T02:14:51;10.30;99.90
22633;DHT22;11483;55.828;37.488;2023-04-03T02:17:17;10.30;99.90
22633;DHT22;11483;55.828;37.488;2023-04-03T02:19:43;10.30;99.90
22633;DHT22;11483;55.828;37.488;2023-04-03T02:22:09;10.30;99.90
22633;DHT22;11483;55.828;37.488;2023-04-03T02:24:35;10.20;99.90
22633;DHT22;11483;55.828;37.488;2023-04-03T02:27:01;10.20;99.90
22633;DHT22;11483;55.828;37.488;2023-04-03T02:29:27;10.20;99.90
22633;DHT22;11483;55.828;37.488;2023-04-03T02:31:53;10.30;99.90
22633;DHT22;11483;55.828;37.488;2023-04-03T02:34:19;10.30;99.90
22633;DHT22;11483;55.828;37.488;2023-04-03T02:36:45;10.30;99.90
22633;DHT22;11483;55.828;37.488;2023-04-03T02:39:11;10.20;99.90
22633;DHT22;11483;55.828;37.488;2023-04-03T02:41:37;10.20;99.90
22633;DHT22;11483;55.828;37.488;2023-04-03T02:44:05;10.30;99.90
22633;DHT22;11483;55.828;37.488;2023-04-03T02:46:31;10.30;99.90
22633;DHT22;11483;55.828;37.488;2023-04-03T02:48:57;10.30;99.90
22633;DHT22;11483;55.828;37.488;2023-04-03T02:51:23;10.20;99.90
22633;DHT22;11483;55.828;37.488;2023-04-03T02:53:50;10.30;99.90
22633;DHT22;11483;55.828;37.488;2023-04-03T02:56:17;10.40;99.90
22633;DHT22;11483;55.828;37.488;2023-04-03T02:58:44;10.40;99.90
22633;DHT22;11483;55.828;37.488;2023-04-03T03:01:10;10.40;99.90
22633;DHT22;11483;55.828;37.488;2023-04-03T03:03:36;10.30;99.90
22633;DHT22;11483;55.828;37.488;2023-04-03T03:06:10;10.20;99.90
22633;DHT22;11483;55.828;37.488;2023-04-03T03:08:37;10.20;99.90
22633;DHT22;11483;55.828;37.488;2023-04-03T03:11:03;10.20;99.90
22633;DHT22;11483;55.828;37.488;2023-04-03T03:13:30;10.20;99.90
22633;DHT22;11483;55.828;37.488;2023-04-03T03:15:56;10.30;99.90
22633;DHT22;11483;55.828;37.488;2023-04-03T03:18:22;10.30;99.90
22633;DHT22;11483;55.828;37.488;2023-04-03T03:20:56;10.30;99.90
22633;DHT22;11483;55.828;37.488;2023-04-03T03:23:24;10.20;99.90
22633;DHT22;11483;55.828;37.488;2023-04-03T03:26:07;10.20;99.90
22633;DHT22;11483;55.828;37.488;2023-04-03T03:28:35;10.20;99.90
22633;DHT22;11483;55.828;37.488;2023-04-03T03:31:02;10.20;99.90
22633;DHT22;11483;55.828;37.488;2023-04-03T03:33:28;10.10;99.90
22633;DHT22;11483;55.828;37.488;2023-04-03T03:35:54;10.10;99.90
22633;DHT22;11483;55.828;37.488;2023-04-03T03:38:20;10.10;99.90
22633;DHT22;11483;55.828;37.488;2023-04-03T03:40:50;10.10;99.90
22633;DHT22;11483;55.828;37.488;2023-04-03T03:43:17;10.10;99.90
22633;DHT22;11483;55.828;37.488;2023-04-03T03:45:43;10.20;99.90
22633;DHT22;11483;55.828;37.488;2023-04-03T03:48:09;10.10;99.90
22633;DHT22;11483;55.828;37.488;2023-04-03T03:50:35;10.20;99.90
22633;DHT22;11483;55.828;37.488;2023-04-03T03:53:01;10.10;99.90
22633;DHT22;11483;55.828;37.488;2023-04-03T03:55:27;10.20;99.90
22633;DHT22;11483;55.828;37.488;2023-04-03T03:57:53;10.20;99.90
22633;DHT22;11483;55.828;37.488;2023-04-03T04:00:19;10.20;99.90
22633;DHT22;11483;55.828;37.488;2023-04-03T04:02:45;10.30;99.90
22633;DHT22;11483;55.828;37.488;2023-04-03T04:05:12;10.30;99.90
22633;DHT22;11483;55.828;37.488;2023-04-03T04:07:38;10.40;99.90
22633;DHT22;11483;55.828;37.488;2023-04-03T04:10:04;10.50;99.90
22633;DHT22;11483;55.828;37.488;2023-04-03T04:12:30;10.50;99.90
22633;DHT22;11483;55.828;37.488;2023-04-03T04:14:56;10.60;99.90
22633;DHT22;11483;55.828;37.488;2023-04-03T04:17:22;10.60;99.90
22633;DHT22;11483;55.828;37.488;2023-04-03T04:19:48;10.60;99.90
22633;DHT22;11483;55.828;37.488;2023-04-03T04:22:13;10.70;99.90
22633;DHT22;11483;55.828;37.488;2023-04-03T04:24:39;10.80;99.90
22633;DHT22;11483;55.828;37.488;2023-04-03T04:27:05;10.80;99.90
22633;DHT22;11483;55.828;37.488;2023-04-03T04:29:31;10.80;99.90
22633;DHT22;11483;55.828;37.488;2023-04-03T04:32:02;10.80;99.90
22633;DHT22;11483;55.828;37.488;2023-04-03T04:34:28;10.80;99.90
22633;DHT22;11483;55.828;37.488;2023-04-03T04:36:54;10.80;99.90
22633;DHT22;11483;55.828;37.488;2023-04-03T04:39:20;10.90;99.90
22633;DHT22;11483;55.828;37.488;2023-04-03T04:41:46;11.00;99.90
22633;DHT22;11483;55.828;37.488;2023-04-03T04:44:12;11.00;99.90
22633;DHT22;11483;55.828;37.488;2023-04-03T04:46:37;11.10;99.90
22633;DHT22;11483;55.828;37.488;2023-04-03T04:49:03;11.20;99.90
22633;DHT22;11483;55.828;37.488;2023-04-03T04:51:30;11.30;99.90
22633;DHT22;11483;55.828;37.488;2023-04-03T04:53:55;11.30;99.90
22633;DHT22;11483;55.828;37.488;2023-04-03T04:56:21;11.40;99.90
22633;DHT22;11483;55.828;37.488;2023-04-03T04:58:47;11.50;99.90
22633;DHT22;11483;55.828;37.488;2023-04-03T05:01:13;11.60;99.90
22633;DHT22;11483;55.828;37.488;2023-04-03T05:03:39;11.70;99.90
22633;DHT22;11483;55.828;37.488;2023-04-03T05:06:05;11.80;99.90
22633;DHT22;11483;55.828;37.488;2023-04-03T05:08:31;11.80;99.90
22633;DHT22;11483;55.828;37.488;2023-04-03T05:10:57;11.80;99.90
22633;DHT22;11483;55.828;37.488;2023-04-03T05:13:23;11.90;99.90
22633;DHT22;11483;55.828;37.488;2023-04-03T05:15:49;12.00;99.90
22633;DHT22;11483;55.828;37.488;2023-04-03T05:18:15;12.00;99.90
22633;DHT22;11483;55.828;37.488;2023-04-03T05:20:40;12.00;99.90
22633;DHT22;11483;55.828;37.488;2023-04-03T05:23:06;12.00;99.90
22633;DHT22;11483;55.828;37.488;2023-04-03T05:25:32;12.10;99.90
22633;DHT22;11483;55.828;37.488;2023-04-03T05:27:58;12.10;99.90
22633;DHT22;11483;55.828;37.488;2023-04-03T05:30:24;12.20;99.90
22633;DHT22;11483;55.828;37.488;2023-04-03T05:32:50;12.20;99.90
22633;DHT22;11483;55.828;37.488;2023-04-03T05:35:16;12.10;99.90
22633;DHT22;11483;55.828;37.488;2023-04-03T05:37:42;12.20;99.90
22633;DHT22;11483;55.828;37.488;2023-04-03T05:40:08;12.20;99.90
22633;DHT22;11483;55.828;37.488;2023-04-03T05:42:34;12.30;99.90
22633;DHT22;11483;55.828;37.488;2023-04-03T05:45:00;12.40;99.90
22633;DHT22;11483;55.828;37.488;2023-04-03T05:47:26;12.40;99.90
22633;DHT22;11483;55.828;37.488;2023-04-03T05:49:52;12.30;99.90
22633;DHT22;11483;55.828;37.488;2023-04-03T05:52:28;12.30;99.90
22633;DHT22;11483;55.828;37.488;2023-04-03T05:54:55;12.30;99.90
22633;DHT22;11483;55.828;37.488;2023-04-03T05:57:21;12.40;99.90
22633;DHT22;11483;55.828;37.488;2023-04-03T05:59:47;12.50;99.90
22633;DHT22;11483;55.828;37.488;2023-04-03T06:02:16;12.50;99.90
22633;DHT22;11483;55.828;37.488;2023-04-03T06:04:42;12.50;99.90
22633;DHT22;11483;55.828;37.488;2023-04-03T06:07:12;12.60;99.90
22633;DHT22;11483;55.828;37.488;2023-04-03T06:09:39;12.60;99.90
22633;DHT22;11483;55.828;37.488;2023-04-03T06:12:05;12.70;99.90
22633;DHT22;11483;55.828;37.488;2023-04-03T06:14:31;12.70;99.90
22633;DHT22;11483;55.828;37.488;2023-04-03T06:16:57;12.80;99.90
22633;DHT22;11483;55.828;37.488;2023-04-03T06:19:23;12.80;99.90
22633;DHT22;11483;55.828;37.488;2023-04-03T06:21:49;12.80;99.90
22633;DHT22;11483;55.828;37.488;2023-04-03T06:24:17;12.80;99.90
22633;DHT22;11483;55.828;37.488;2023-04-03T06:26:43;12.80;99.90
22633;DHT22;11483;55.828;37.488;2023-04-03T06:29:09;12.90;99.90
22633;DHT22;11483;55.828;37.488;2023-04-03T06:31:35;13.00;99.90
22633;DHT22;11483;55.828;37.488;2023-04-03T06:34:03;13.00;99.90
22633;DHT22;11483;55.828;37.488;2023-04-03T06:36:29;13.10;99.90
22633;DHT22;11483;55.828;37.488;2023-04-03T06:38:55;13.10;99.90
22633;DHT22;11483;55.828;37.488;2023-04-03T06:41:21;13.20;99.90
22633;DHT22;11483;55.828;37.488;2023-04-03T06:43:47;13.20;99.90
22633;DHT22;11483;55.828;37.488;2023-04-03T06:46:18;13.20;99.90
22633;DHT22;11483;55.828;37.488;2023-04-03T06:48:44;13.20;99.90
22633;DHT22;11483;55.828;37.488;2023-04-03T06:51:19;13.10;99.90
22633;DHT22;11483;55.828;37.488;2023-04-03T06:53:50;13.30;99.90
22633;DHT22;11483;55.828;37.488;2023-04-03T06:56:17;13.40;99.90
22633;DHT22;11483;55.828;37.488;2023-04-03T06:58:44;13.60;99.90
22633;DHT22;11483;55.828;37.488;2023-04-03T07:01:12;13.70;99.90
22633;DHT22;11483;55.828;37.488;2023-04-03T07:03:38;13.90;99.90
22633;DHT22;11483;55.828;37.488;2023-04-03T07:06:06;14.00;99.90
22633;DHT22;11483;55.828;37.488;2023-04-03T07:08:33;14.10;99.90
22633;DHT22;11483;55.828;37.488;2023-04-03T07:10:59;14.20;99.90
22633;DHT22;11483;55.828;37.488;2023-04-03T07:13:26;14.20;99.90
22633;DHT22;11483;55.828;37.488;2023-04-03T07:15:52;14.40;99.90
22633;DHT22;11483;55.828;37.488;2023-04-03T07:18:18;14.60;99.90
22633;DHT22;11483;55.828;37.488;2023-04-03T07:20:44;14.80;99.90
22633;DHT22;11483;55.828;37.488;2023-04-03T07:23:10;14.90;99.90
22633;DHT22;11483;55.828;37.488;2023-04-03T07:25:36;15.00;99.90
22633;DHT22;11483;55.828;37.488;2023-04-03T07:28:03;15.00;99.90
22633;DHT22;11483;55.828;37.488;2023-04-03T07:30:29;15.20;99.90
22633;DHT22;11483;55.828;37.488;2023-04-03T07:32:55;15.50;99.90
22633;DHT22;11483;55.828;37.488;2023-04-03T07:35:20;15.60;99.90
22633;DHT22;11483;55.828;37.488;2023-04-03T07:37:46;15.80;99.90
22633;DHT22;11483;55.828;37.488;2023-04-03T07:40:12;16.10;99.90
22633;DHT22;11483;55.828;37.488;2023-04-03T07:42:38;16.20;99.90
22633;DHT22;11483;55.828;37.488;2023-04-03T07:45:03;16.30;99.90
22633;DHT22;11483;55.828;37.488;2023-04-03T07:47:30;16.60;99.90
22633;DHT22;11483;55.828;37.488;2023-04-03T07:49:57;17.10;99.90
22633;DHT22;11483;55.828;37.488;2023-04-03T07:52:24;17.70;99.90
22633;DHT22;11483;55.828;37.488;2023-04-03T07:54:50;18.20;99.90
22633;DHT22;11483;55.828;37.488;2023-04-03T07:57:16;18.30;99.90
22633;DHT22;11483;55.828;37.488;2023-04-03T07:59:42;18.40;99.90
22633;DHT22;11483;55.828;37.488;2023-04-03T08:02:12;18.50;99.90
22633;DHT22;11483;55.828;37.488;2023-04-03T08:04:38;18.50;99.90
22633;DHT22;11483;55.828;37.488;2023-04-03T08:07:04;18.60;99.90
22633;DHT22;11483;55.828;37.488;2023-04-03T08:09:30;18.70;99.90
22633;DHT22;11483;55.828;37.488;2023-04-03T08:11:57;18.80;99.90
22633;DHT22;11483;55.828;37.488;2023-04-03T08:14:24;18.70;99.90
22633;DHT22;11483;55.828;37.488;2023-04-03T08:16:50;18.80;99.90
22633;DHT22;11483;55.828;37.488;2023-04-03T08:19:16;19.00;99.90
22633;DHT22;11483;55.828;37.488;2023-04-03T08:21:44;19.20;99.90
22633;DHT22;11483;55.828;37.488;2023-04-03T08:24:11;19.30;99.90
22633;DHT22;11483;55.828;37.488;2023-04-03T08:26:37;19.30;99.90
22633;DHT22;11483;55.828;37.488;2023-04-03T08:29:03;19.20;99.90
22633;DHT22;11483;55.828;37.488;2023-04-03T08:31:29;19.30;99.90
22633;DHT22;11483;55.828;37.488;2023-04-03T08:33:56;19.40;99.90
22633;DHT22;11483;55.828;37.488;2023-04-03T08:36:25;19.50;99.50
22633;DHT22;11483;55.828;37.488;2023-04-03T08:38:53;19.30;98.60
22633;DHT22;11483;55.828;37.488;2023-04-03T08:49:49;19.10;96.80
22633;DHT22;11483;55.828;37.488;2023-04-03T08:52:39;18.80;97.90
22633;DHT22;11483;55.828;37.488;2023-04-03T08:57:49;18.70;98.50
22633;DHT22;11483;55.828;37.488;2023-04-03T09:00:20;18.90;98.20
22633;DHT22;11483;55.828;37.488;2023-04-03T09:02:51;19.00;98.40
22633;DHT22;11483;55.828;37.488;2023-04-03T09:08:33;19.10;98.40
22633;DHT22;11483;55.828;37.488;2023-04-03T09:11:24;18.90;98.10
22633;DHT22;11483;55.828;37.488;2023-04-03T09:16:48;18.80;98.20
22633;DHT22;11483;55.828;37.488;2023-04-03T09:21:44;19.00;97.70
22633;DHT22;11483;55.828;37.488;2023-04-03T09:24:12;19.20;97.80
22633;DHT22;11483;55.828;37.488;2023-04-03T09:26:51;19.30;96.90
22633;DHT22;11483;55.828;37.488;2023-04-03T09:29:21;19.20;96.80
22633;DHT22;11483;55.828;37.488;2023-04-03T09:31:59;19.30;96.60
22633;DHT22;11483;55.828;37.488;2023-04-03T09:36:56;18.70;96.60
22633;DHT22;11483;55.828;37.488;2023-04-03T09:39:25;18.60;96.70
22633;DHT22;11483;55.828;37.488;2023-04-03T09:42:19;18.50;97.20
22633;DHT22;11483;55.828;37.488;2023-04-03T09:44:57;18.50;97.10
22633;DHT22;11483;55.828;37.488;2023-04-03T09:47:27;18.60;97.10
22633;DHT22;11483;55.828;37.488;2023-04-03T09:50:21;18.80;97.10
22633;DHT22;11483;55.828;37.488;2023-04-03T09:52:49;19.20;96.30
22633;DHT22;11483;55.828;37.488;2023-04-03T09:55:22;19.40;96.40
22633;DHT22;11483;55.828;37.488;2023-04-03T09:58:02;19.40;95.70
22633;DHT22;11483;55.828;37.488;2023-04-03T10:00:38;19.10;95.30
22633;DHT22;11483;55.828;37.488;2023-04-03T10:03:21;19.20;95.70
22633;DHT22;11483;55.828;37.488;2023-04-03T10:05:49;19.20;95.40
22633;DHT22;11483;55.828;37.488;2023-04-03T10:10:47;19.50;95.40
22633;DHT22;11483;55.828;37.488;2023-04-03T10:13:18;19.40;95.50
22633;DHT22;11483;55.828;37.488;2023-04-03T10:16:12;19.30;95.40
22633;DHT22;11483;55.828;37.488;2023-04-03T10:18:52;19.20;95.20
22633;DHT22;11483;55.828;37.488;2023-04-03T10:24:41;19.40;94.80
22633;DHT22;11483;55.828;37.488;2023-04-03T10:27:17;19.30;95.10
22633;DHT22;11483;55.828;37.488;2023-04-03T10:30:21;19.30;95.10
22633;DHT22;11483;55.828;37.488;2023-04-03T10:47:43;18.90;94.70
22633;DHT22;11483;55.828;37.488;2023-04-03T10:50:23;18.80;95.10
22633;DHT22;11483;55.828;37.488;2023-04-03T10:52:50;18.80;95.20
22633;DHT22;11483;55.828;37.488;2023-04-03T10:57:55;18.60;94.60
22633;DHT22;11483;55.828;37.488;2023-04-03T11:00:44;18.40;94.50
22633;DHT22;11483;55.828;37.488;2023-04-03T11:03:50;18.10;95.20
22633;DHT22;11483;55.828;37.488;2023-04-03T11:06:15;18.00;96.00
22633;DHT22;11483;55.828;37.488;2023-04-03T11:08:45;18.10;95.10
22633;DHT22;11483;55.828;37.488;2023-04-03T11:11:19;18.20;94.70
22633;DHT22;11483;55.828;37.488;2023-04-03T11:14:09;18.40;94.40
22633;DHT22;11483;55.828;37.488;2023-04-03T11:16:53;18.50;94.20
22633;DHT22;11483;55.828;37.488;2023-04-03T11:19:39;18.50;93.80
22633;DHT22;11483;55.828;37.488;2023-04-03T11:22:27;18.50;93.70
22633;DHT22;11483;55.828;37.488;2023-04-03T11:27:37;18.50;92.40
22633;DHT22;11483;55.828;37.488;2023-04-03T11:30:12;18.50;92.10
22633;DHT22;11483;55.828;37.488;2023-04-03T11:33:12;18.40;91.90
22633;DHT22;11483;55.828;37.488;2023-04-03T11:36:24;18.30;91.00
22633;DHT22;11483;55.828;37.488;2023-04-03T11:38:49;18.00;90.60
22633;DHT22;11483;55.828;37.488;2023-04-03T11:41:28;17.90;90.90
22633;DHT22;11483;55.828;37.488;2023-04-03T11:44:04;18.20;90.80
22633;DHT22;11483;55.828;37.488;2023-04-03T11:46:50;18.20;90.60
22633;DHT22;11483;55.828;37.488;2023-04-03T12:13:40;17.90;92.30
22633;DHT22;11483;55.828;37.488;2023-04-03T12:22:04;17.60;93.00
22633;DHT22;11483;55.828;37.488;2023-04-03T12:48:52;16.80;95.90
22633;DHT22;11483;55.828;37.488;2023-04-03T12:51:38;16.50;96.20
22633;DHT22;11483;55.828;37.488;2023-04-03T12:54:18;16.30;96.60
22633;DHT22;11483;55.828;37.488;2023-04-03T12:56:45;16.10;97.00
22633;DHT22;11483;55.828;37.488;2023-04-03T12:59:23;16.00;97.60
22633;DHT22;11483;55.828;37.488;2023-04-03T13:01:57;15.80;98.00
22633;DHT22;11483;55.828;37.488;2023-04-03T13:04:24;15.70;98.50
22633;DHT22;11483;55.828;37.488;2023-04-03T13:06:51;15.60;98.50
22633;DHT22;11483;55.828;37.488;2023-04-03T13:09:26;15.50;99.10
22633;DHT22;11483;55.828;37.488;2023-04-03T13:12:13;15.50;99.10
22633;DHT22;11483;55.828;37.488;2023-04-03T13:14:49;15.40;99.70
22633;DHT22;11483;55.828;37.488;2023-04-03T13:17:17;15.30;99.70
22633;DHT22;11483;55.828;37.488;2023-04-03T13:19:44;15.30;99.80
22633;DHT22;11483;55.828;37.488;2023-04-03T13:25:00;15.20;99.90
22633;DHT22;11483;55.828;37.488;2023-04-03T13:27:27;15.10;99.90
22633;DHT22;11483;55.828;37.488;2023-04-03T13:29:57;15.00;99.90
22633;DHT22;11483;55.828;37.488;2023-04-03T13:32:26;14.90;99.90
22633;DHT22;11483;55.828;37.488;2023-04-03T13:34:53;14.80;99.90
22633;DHT22;11483;55.828;37.488;2023-04-03T13:42:37;14.50;99.90
22633;DHT22;11483;55.828;37.488;2023-04-03T13:45:30;14.30;99.90
22633;DHT22;11483;55.828;37.488;2023-04-03T13:48:19;14.20;99.90
22633;DHT22;11483;55.828;37.488;2023-04-03T13:51:04;14.10;99.90
22633;DHT22;11483;55.828;37.488;2023-04-03T13:53:33;14.20;99.90
22633;DHT22;11483;55.828;37.488;2023-04-03T13:56:07;14.20;99.90
22633;DHT22;11483;55.828;37.488;2023-04-03T13:58:34;14.30;99.90
22633;DHT22;11483;55.828;37.488;2023-04-03T14:01:07;14.30;99.90
22633;DHT22;11483;55.828;37.488;2023-04-03T14:03:56;14.30;99.90
22633;DHT22;11483;55.828;37.488;2023-04-03T14:06:23;14.30;99.90
22633;DHT22;11483;55.828;37.488;2023-04-03T14:08:49;14.30;99.90
22633;DHT22;11483;55.828;37.488;2023-04-03T14:11:21;14.30;99.90
22633;DHT22;11483;55.828;37.488;2023-04-03T14:13:49;14.30;99.90
22633;DHT22;11483;55.828;37.488;2023-04-03T14:16:19;14.30;99.90
22633;DHT22;11483;55.828;37.488;2023-04-03T14:18:47;14.30;99.90
22633;DHT22;11483;55.828;37.488;2023-04-03T14:21:16;14.30;99.90
22633;DHT22;11483;55.828;37.488;2023-04-03T14:23:42;14.30;99.90
22633;DHT22;11483;55.828;37.488;2023-04-03T14:26:22;14.80;99.90
22633;DHT22;11483;55.828;37.488;2023-04-03T14:28:51;14.20;99.90
22633;DHT22;11483;55.828;37.488;2023-04-03T14:31:18;14.20;99.90
22633;DHT22;11483;55.828;37.488;2023-04-03T14:33:45;14.20;99.90
22633;DHT22;11483;55.828;37.488;2023-04-03T14:36:22;14.10;99.90
22633;DHT22;11483;55.828;37.488;2023-04-03T14:38:49;14.10;99.90
22633;DHT22;11483;55.828;37.488;2023-04-03T14:41:18;14.10;99.90
22633;DHT22;11483;55.828;37.488;2023-04-03T14:43:45;14.00;99.90
22633;DHT22;11483;55.828;37.488;2023-04-03T14:46:25;14.00;99.90
22633;DHT22;11483;55.828;37.488;2023-04-03T14:48:52;13.90;99.90
22633;DHT22;11483;55.828;37.488;2023-04-03T14:51:18;13.80;99.90
22633;DHT22;11483;55.828;37.488;2023-04-03T14:53:44;13.80;99.90
22633;DHT22;11483;55.828;37.488;2023-04-03T14:56:26;13.70;99.90
22633;DHT22;11483;55.828;37.488;2023-04-03T14:59:00;13.70;99.90
22633;DHT22;11483;55.828;37.488;2023-04-03T15:01:27;13.70;99.90
22633;DHT22;11483;55.828;37.488;2023-04-03T15:03:53;13.60;99.90
22633;DHT22;11483;55.828;37.488;2023-04-03T15:06:20;13.60;99.90
22633;DHT22;11483;55.828;37.488;2023-04-03T15:08:47;13.60;99.90
22633;DHT22;11483;55.828;37.488;2023-04-03T15:11:14;13.60;99.90
22633;DHT22;11483;55.828;37.488;2023-04-03T15:13:40;13.60;99.90
22633;DHT22;11483;55.828;37.488;2023-04-03T15:16:16;13.50;99.90
22633;DHT22;11483;55.828;37.488;2023-04-03T15:18:43;13.60;99.90
22633;DHT22;11483;55.828;37.488;2023-04-03T15:21:09;13.60;99.90
22633;DHT22;11483;55.828;37.488;2023-04-03T15:23:35;13.50;99.90
22633;DHT22;11483;55.828;37.488;2023-04-03T15:26:02;13.50;99.90
22633;DHT22;11483;55.828;37.488;2023-04-03T15:28:32;13.50;99.90
22633;DHT22;11483;55.828;37.488;2023-04-03T15:30:59;13.50;99.90
22633;DHT22;11483;55.828;37.488;2023-04-03T15:33:26;13.50;99.90
22633;DHT22;11483;55.828;37.488;2023-04-03T15:35:52;13.40;99.90
22633;DHT22;11483;55.828;37.488;2023-04-03T15:38:18;13.40;99.90
22633;DHT22;11483;55.828;37.488;2023-04-03T15:40:45;13.20;99.90
22633;DHT22;11483;55.828;37.488;2023-04-03T15:43:13;13.30;99.90
22633;DHT22;11483;55.828;37.488;2023-04-03T15:45:39;13.30;99.90
22633;DHT22;11483;55.828;37.488;2023-04-03T15:48:06;13.30;99.90
22633;DHT22;11483;55.828;37.488;2023-04-03T15:50:33;13.30;99.90
22633;DHT22;11483;55.828;37.488;2023-04-03T15:52:59;13.20;99.90
22633;DHT22;11483;55.828;37.488;2023-04-03T15:55:28;13.20;99.90
22633;DHT22;11483;55.828;37.488;2023-04-03T15:57:55;13.20;99.90
22633;DHT22;11483;55.828;37.488;2023-04-03T16:00:22;13.10;99.90
22633;DHT22;11483;55.828;37.488;2023-04-03T16:02:51;13.00;99.90
22633;DHT22;11483;55.828;37.488;2023-04-03T16:05:18;12.90;99.90
22633;DHT22;11483;55.828;37.488;2023-04-03T16:07:44;12.90;99.90
22633;DHT22;11483;55.828;37.488;2023-04-03T16:10:12;12.80;99.90
22633;DHT22;11483;55.828;37.488;2023-04-03T16:12:38;12.70;99.90
22633;DHT22;11483;55.828;37.488;2023-04-03T16:15:04;12.70;99.90
22633;DHT22;11483;55.828;37.488;2023-04-03T16:17:32;12.70;99.90
22633;DHT22;11483;55.828;37.488;2023-04-03T16:19:59;12.70;99.90
22633;DHT22;11483;55.828;37.488;2023-04-03T16:22:26;12.60;99.90
22633;DHT22;11483;55.828;37.488;2023-04-03T16:24:53;12.60;99.90
22633;DHT22;11483;55.828;37.488;2023-04-03T16:27:20;12.50;99.90
22633;DHT22;11483;55.828;37.488;2023-04-03T16:29:46;12.50;99.90
22633;DHT22;11483;55.828;37.488;2023-04-03T16:32:13;12.50;99.90
22633;DHT22;11483;55.828;37.488;2023-04-03T16:34:39;12.50;99.90
22633;DHT22;11483;55.828;37.488;2023-04-03T16:37:06;12.50;99.90
22633;DHT22;11483;55.828;37.488;2023-04-03T16:39:35;12.50;99.90
22633;DHT22;11483;55.828;37.488;2023-04-03T16:42:01;12.50;99.90
22633;DHT22;11483;55.828;37.488;2023-04-03T16:44:27;12.40;99.90
22633;DHT22;11483;55.828;37.488;2023-04-03T16:46:53;12.40;99.90
22633;DHT22;11483;55.828;37.488;2023-04-03T16:49:18;12.40;99.90
22633;DHT22;11483;55.828;37.488;2023-04-03T16:51:45;12.40;99.90
22633;DHT22;11483;55.828;37.488;2023-04-03T16:54:11;12.30;99.90
22633;DHT22;11483;55.828;37.488;2023-04-03T16:56:39;12.30;99.90
22633;DHT22;11483;55.828;37.488;2023-04-03T16:59:05;12.30;99.90
22633;DHT22;11483;55.828;37.488;2023-04-03T17:01:31;12.20;99.90
22633;DHT22;11483;55.828;37.488;2023-04-03T17:03:56;12.20;99.90
22633;DHT22;11483;55.828;37.488;2023-04-03T17:06:22;12.10;99.90
22633;DHT22;11483;55.828;37.488;2023-04-03T17:08:50;12.10;99.90
22633;DHT22;11483;55.828;37.488;2023-04-03T17:11:17;12.10;99.90
22633;DHT22;11483;55.828;37.488;2023-04-03T17:13:43;12.10;99.90
22633;DHT22;11483;55.828;37.488;2023-04-03T17:16:12;12.20;99.90
22633;DHT22;11483;55.828;37.488;2023-04-03T17:18:39;12.10;99.90
22633;DHT22;11483;55.828;37.488;2023-04-03T17:21:07;11.90;99.90
22633;DHT22;11483;55.828;37.488;2023-04-03T17:23:34;11.80;99.90
22633;DHT22;11483;55.828;37.488;2023-04-03T17:26:02;11.70;99.90
22633;DHT22;11483;55.828;37.488;2023-04-03T17:28:28;11.70;99.90